createdAt,value
2018-07-04T00:01:36.692Z,10.53
2018-07-04T00:04:15.445Z,25.40
2018-07-04T00:06:54.208Z,26.60
2018-07-04T00:09:32.876Z,17.73
2018-07-04T00:12:11.624Z,21.63
2018-07-04T00:14:50.319Z,20.93
2018-07-04T00:17:28.836Z,23.77
2018-07-04T00:20:07.481Z,18.83
2018-07-04T00:22:46.052Z,25.60
2018-07-04T00:25:24.780Z,14.67
2018-07-04T00:28:03.372Z,13.73
2018-07-04T00:30:41.926Z,32.90
2018-07-04T00:33:20.756Z,32.30
2018-07-04T00:35:59.533Z,15.03
2018-07-04T00:38:38.241Z,15.83
2018-07-04T00:41:16.901Z,22.70
2018-07-04T00:43:55.589Z,12.40
2018-07-04T00:46:34.061Z,15.73
2018-07-04T00:49:12.843Z,12.63
2018-07-04T00:51:51.792Z,12.60
2018-07-04T00:54:30.471Z,15.10
2018-07-04T00:57:09.176Z,10.63
2018-07-04T00:59:47.774Z,18.97
2018-07-04T01:02:26.421Z,10.73
2018-07-04T01:05:04.916Z,11.17
2018-07-04T01:07:43.572Z,24.07
2018-07-04T01:10:22.187Z,17.80
2018-07-04T01:13:00.981Z,7.47
2018-07-04T01:15:39.772Z,13.10
2018-07-04T01:18:18.440Z,19.37
2018-07-04T01:21:02.980Z,17.50
2018-07-04T01:23:41.820Z,17.00
2018-07-04T01:26:20.504Z,17.67
2018-07-04T01:28:59.027Z,12.60
2018-07-04T01:31:37.617Z,17.70
2018-07-04T01:34:16.280Z,11.53
2018-07-04T01:36:55.096Z,11.60
2018-07-04T01:39:33.836Z,12.27
2018-07-04T01:42:12.492Z,14.17
2018-07-04T01:44:51.267Z,8.70
2018-07-04T01:47:30.045Z,10.73
2018-07-04T01:50:08.877Z,7.90
2018-07-04T01:52:47.429Z,10.60
2018-07-04T01:55:26.276Z,10.57
2018-07-04T01:58:04.929Z,16.90
2018-07-04T02:00:43.549Z,14.00
2018-07-04T02:03:22.072Z,15.87
2018-07-04T02:06:00.517Z,13.13
2018-07-04T02:08:39.184Z,20.07
2018-07-04T02:11:17.959Z,17.53
2018-07-04T02:13:56.533Z,9.53
2018-07-04T02:16:35.246Z,11.90
2018-07-04T02:19:14.009Z,8.07
2018-07-04T02:21:52.628Z,9.50
2018-07-04T02:24:31.313Z,13.13
2018-07-04T02:27:09.970Z,17.03
2018-07-04T02:29:48.504Z,11.27
2018-07-04T02:32:27.163Z,14.43
2018-07-04T02:35:05.969Z,14.20
2018-07-04T02:37:44.687Z,7.93
2018-07-04T02:40:23.297Z,12.07
2018-07-04T02:43:02.132Z,9.17
2018-07-04T02:45:40.860Z,17.03
2018-07-04T02:48:19.798Z,12.63
2018-07-04T02:50:59.093Z,10.00
2018-07-04T02:53:37.852Z,14.00
2018-07-04T02:56:16.421Z,41.07
2018-07-04T02:58:55.097Z,11.13
2018-07-04T03:01:34.000Z,13.17
2018-07-04T03:04:12.628Z,7.93
2018-07-04T03:06:51.065Z,15.00
2018-07-04T03:09:29.746Z,10.67
2018-07-04T03:12:08.441Z,11.97
2018-07-04T03:14:46.982Z,6.27
2018-07-04T03:17:25.628Z,13.03
2018-07-04T03:20:04.441Z,15.20
2018-07-04T03:22:43.308Z,8.23
2018-07-04T03:25:22.100Z,8.40
2018-07-04T03:28:00.710Z,14.13
2018-07-04T03:30:39.244Z,7.80
2018-07-04T03:33:18.045Z,11.40
2018-07-04T03:35:56.800Z,8.27
2018-07-04T03:38:35.577Z,10.27
2018-07-04T03:41:14.201Z,9.40
2018-07-04T03:43:52.900Z,9.13
2018-07-04T03:46:31.648Z,12.10
2018-07-04T03:49:10.240Z,11.27
2018-07-04T03:51:49.232Z,15.40
2018-07-04T03:54:27.976Z,15.20
2018-07-04T03:57:06.657Z,15.97
2018-07-04T03:59:45.376Z,13.90
2018-07-04T04:02:24.258Z,13.27
2018-07-04T04:05:03.090Z,13.93
2018-07-04T04:07:41.747Z,11.47
2018-07-04T04:10:20.430Z,15.07
2018-07-04T04:12:59.132Z,8.60
2018-07-04T04:15:38.099Z,13.57
2018-07-04T04:18:16.875Z,11.10
2018-07-04T04:20:55.508Z,14.03
2018-07-04T04:23:34.247Z,15.17
2018-07-04T04:26:12.923Z,18.23
2018-07-04T04:28:51.899Z,21.63
2018-07-04T04:31:30.579Z,20.40
2018-07-04T04:34:09.432Z,18.57
2018-07-04T04:36:48.087Z,15.73
2018-07-04T04:39:26.610Z,16.50
2018-07-04T04:42:05.362Z,22.20
2018-07-04T04:44:44.072Z,11.97
2018-07-04T04:47:22.683Z,11.97
2018-07-04T04:50:01.396Z,15.77
2018-07-04T04:52:40.152Z,20.03
2018-07-04T04:55:19.769Z,15.87
2018-07-04T04:57:58.343Z,14.07
2018-07-04T05:00:36.991Z,19.63
2018-07-04T05:03:15.588Z,18.93
2018-07-04T05:05:54.335Z,16.37
2018-07-04T05:08:33.088Z,17.60
2018-07-04T05:11:11.919Z,15.80
2018-07-04T05:13:50.696Z,12.90
2018-07-04T05:16:29.435Z,16.20
2018-07-04T05:19:08.005Z,18.50
2018-07-04T05:21:46.668Z,17.53
2018-07-04T05:24:25.476Z,16.63
2018-07-04T05:27:04.398Z,11.40
2018-07-04T05:29:43.140Z,13.67
2018-07-04T05:32:21.893Z,15.67
2018-07-04T05:35:00.604Z,8.40
2018-07-04T05:37:39.304Z,12.90
2018-07-04T05:40:18.044Z,16.73
2018-07-04T05:42:56.799Z,14.67
2018-07-04T05:45:35.433Z,11.80
2018-07-04T05:48:14.140Z,16.60
2018-07-04T05:50:52.607Z,12.83
2018-07-04T05:53:31.311Z,8.80
2018-07-04T05:56:10.054Z,14.80
2018-07-04T05:58:48.788Z,15.47
2018-07-04T06:01:27.679Z,10.77
2018-07-04T06:04:06.320Z,8.40
2018-07-04T06:06:44.916Z,6.67
2018-07-04T06:09:23.474Z,7.17
2018-07-04T06:12:02.305Z,6.77
2018-07-04T06:14:41.026Z,7.73
2018-07-04T06:17:19.740Z,7.70
2018-07-04T06:19:58.399Z,8.37
2018-07-04T06:22:37.016Z,3.90
2018-07-04T06:25:15.769Z,5.80
2018-07-04T06:27:55.314Z,3.03
2018-07-04T06:30:33.931Z,5.37
2018-07-04T06:33:12.625Z,4.07
2018-07-04T06:35:51.381Z,4.10
2018-07-04T06:38:17.516Z,8.10
2018-07-04T06:40:43.656Z,5.53
2018-07-04T06:43:09.809Z,5.13
2018-07-04T06:45:35.948Z,3.00
2018-07-04T06:48:02.105Z,3.33
2018-07-04T06:50:28.263Z,3.90
2018-07-04T06:52:54.409Z,8.80
2018-07-04T06:55:20.528Z,4.00
2018-07-04T06:57:46.676Z,4.60
2018-07-04T07:00:12.797Z,5.80
2018-07-04T07:02:38.927Z,10.30
2018-07-04T07:05:17.516Z,9.00
2018-07-04T07:07:56.096Z,4.53
2018-07-04T07:10:34.737Z,4.93
2018-07-04T07:13:13.263Z,3.47
2018-07-04T07:15:51.775Z,2.93
2018-07-04T07:18:30.308Z,2.83
2018-07-04T07:21:09.051Z,7.50
2018-07-04T07:23:47.784Z,3.80
2018-07-04T07:26:26.454Z,4.70
2018-07-04T07:29:05.157Z,9.37
2018-07-04T07:31:43.915Z,2.77
2018-07-04T07:34:22.663Z,3.33
2018-07-04T07:37:01.463Z,7.63
2018-07-04T07:39:40.044Z,4.50
2018-07-04T07:42:18.759Z,3.00
2018-07-04T07:44:57.417Z,2.67
2018-07-04T07:47:36.172Z,2.80
2018-07-04T07:50:14.709Z,3.73
2018-07-04T07:52:53.417Z,7.07
2018-07-04T07:55:32.008Z,7.73
2018-07-04T07:58:10.636Z,3.63
2018-07-04T08:00:49.251Z,3.10
2018-07-04T08:03:27.924Z,2.43
2018-07-04T08:06:06.501Z,4.50
2018-07-04T08:08:45.121Z,3.20
2018-07-04T08:11:23.900Z,4.30
2018-07-04T08:14:02.599Z,2.30
2018-07-04T08:16:41.404Z,4.07
2018-07-04T08:19:20.140Z,3.10
2018-07-04T08:21:58.825Z,3.30
2018-07-04T08:24:37.523Z,6.10
2018-07-04T08:27:16.144Z,4.90
2018-07-04T08:29:54.933Z,2.70
2018-07-04T08:32:33.641Z,11.03
2018-07-04T08:35:12.433Z,10.03
2018-07-04T08:37:51.040Z,6.40
2018-07-04T08:40:30.077Z,10.33
2018-07-04T08:43:08.837Z,3.60
2018-07-04T08:45:47.494Z,8.67
2018-07-04T08:48:26.093Z,3.77
2018-07-04T08:51:04.783Z,3.10
2018-07-04T08:53:43.475Z,5.63
2018-07-04T08:56:22.113Z,3.97
2018-07-04T08:59:00.630Z,4.33
2018-07-04T09:01:39.253Z,3.80
2018-07-04T09:04:17.811Z,5.73
2018-07-04T09:06:56.508Z,4.70
2018-07-04T09:09:34.972Z,5.63
2018-07-04T09:12:13.621Z,3.20
2018-07-04T09:14:52.319Z,3.97
2018-07-04T09:17:30.854Z,3.27
2018-07-04T09:20:09.519Z,4.60
2018-07-04T09:22:48.047Z,5.80
2018-07-04T09:25:26.789Z,2.73
2018-07-04T09:28:05.519Z,5.73
2018-07-04T09:30:44.236Z,5.47
2018-07-04T09:33:22.923Z,2.73
2018-07-04T09:36:01.581Z,6.50
2018-07-04T09:38:40.176Z,6.40
2018-07-04T09:41:18.820Z,3.00
2018-07-04T09:43:57.555Z,3.30
2018-07-04T09:46:36.289Z,4.90
2018-07-04T09:49:14.992Z,5.47
2018-07-04T09:51:53.829Z,8.97
2018-07-04T09:54:32.482Z,5.07
2018-07-04T09:57:11.188Z,5.53
2018-07-04T09:59:49.739Z,5.40
2018-07-04T10:02:28.430Z,4.30
2018-07-04T10:05:07.184Z,3.47
2018-07-04T10:07:45.895Z,3.67
2018-07-04T10:10:24.564Z,3.17
2018-07-04T10:13:03.234Z,6.93
2018-07-04T10:15:41.959Z,3.67
2018-07-04T10:18:20.715Z,5.27
2018-07-04T10:20:59.304Z,4.27
2018-07-04T10:23:37.951Z,5.73
2018-07-04T10:26:16.620Z,9.73
2018-07-04T10:28:55.205Z,4.00
2018-07-04T10:31:34.028Z,7.87
2018-07-04T10:34:12.636Z,8.20
2018-07-04T10:36:51.364Z,6.60
2018-07-04T10:39:30.121Z,5.03
2018-07-04T10:42:08.768Z,3.30
2018-07-04T10:44:47.501Z,6.90
2018-07-04T10:47:26.216Z,4.43
2018-07-04T10:50:04.880Z,3.03
2018-07-04T10:52:43.780Z,6.17
2018-07-04T10:55:22.641Z,7.63
2018-07-04T10:58:01.329Z,2.33
2018-07-04T11:00:39.876Z,8.27
2018-07-04T11:03:18.489Z,4.90
2018-07-04T11:05:57.005Z,4.80
2018-07-04T11:08:36.048Z,7.03
2018-07-04T11:11:14.799Z,4.30
2018-07-04T11:13:53.255Z,11.83
2018-07-04T11:16:32.025Z,5.17
2018-07-04T11:19:10.652Z,4.53
2018-07-04T11:21:49.212Z,2.20
2018-07-04T11:24:27.883Z,3.60
2018-07-04T11:27:06.491Z,6.57
2018-07-04T11:29:45.108Z,4.40
2018-07-04T11:32:23.810Z,3.00
2018-07-04T11:35:02.526Z,2.13
2018-07-04T11:37:41.152Z,1.83
2018-07-04T11:40:19.975Z,2.07
2018-07-04T11:42:58.689Z,3.30
2018-07-04T11:45:37.427Z,4.13
2018-07-04T11:48:03.557Z,3.33
2018-07-04T11:50:30.128Z,5.30
2018-07-04T11:52:56.304Z,4.27
2018-07-04T11:55:22.406Z,3.20
2018-07-04T11:57:48.512Z,6.23
2018-07-04T12:00:14.620Z,4.50
2018-07-04T12:02:40.841Z,3.30
2018-07-04T12:05:19.597Z,2.40
2018-07-04T12:07:45.668Z,3.40
2018-07-04T12:10:11.816Z,7.07
2018-07-04T12:12:37.924Z,9.20
2018-07-04T12:15:04.238Z,1.87
2018-07-04T12:17:30.364Z,8.77
2018-07-04T12:19:56.505Z,2.80
2018-07-04T12:22:22.653Z,9.93
2018-07-04T12:24:48.800Z,2.30
2018-07-04T12:27:14.944Z,3.20
2018-07-04T12:29:41.096Z,2.70
2018-07-04T12:32:07.343Z,5.87
2018-07-04T12:34:33.420Z,6.37
2018-07-04T12:36:59.816Z,1.80
2018-07-04T12:39:25.915Z,1.80
2018-07-04T12:41:52.253Z,1.70
2018-07-04T12:44:18.331Z,6.10
2018-07-04T12:46:44.436Z,2.40
2018-07-04T12:49:10.552Z,2.20
2018-07-04T12:51:36.693Z,4.33
2018-07-04T12:54:08.658Z,1.70
2018-07-04T12:56:47.269Z,1.57
2018-07-04T12:59:25.852Z,1.90
2018-07-04T13:02:04.549Z,3.53
2018-07-04T13:04:43.780Z,1.80
2018-07-04T13:07:23.121Z,2.73
2018-07-04T13:10:01.911Z,2.17
2018-07-04T13:12:40.564Z,3.67
2018-07-04T13:15:19.119Z,1.73
2018-07-04T13:17:57.718Z,2.13
2018-07-04T13:20:36.346Z,2.03
2018-07-04T13:23:14.954Z,1.40
2018-07-04T13:25:53.739Z,1.70
2018-07-04T13:28:32.356Z,2.70
2018-07-04T13:31:11.247Z,3.73
2018-07-04T13:33:49.801Z,4.83
2018-07-04T13:36:28.510Z,1.40
2018-07-04T13:39:07.200Z,4.60
2018-07-04T13:41:45.884Z,5.83
2018-07-04T13:44:24.526Z,3.00
2018-07-04T13:47:03.226Z,3.67
2018-07-04T13:49:42.176Z,3.93
2018-07-04T13:52:20.793Z,2.17
2018-07-04T13:54:59.439Z,3.50
2018-07-04T13:57:37.985Z,2.03
2018-07-04T14:00:16.861Z,2.40
2018-07-04T14:02:55.764Z,3.50
2018-07-04T14:05:34.552Z,5.23
2018-07-04T14:08:13.368Z,1.63
2018-07-04T14:10:52.125Z,2.60
2018-07-04T14:13:30.820Z,2.10
2018-07-04T14:16:09.488Z,2.97
2018-07-04T14:18:48.260Z,2.67
2018-07-04T14:21:27.961Z,1.63
2018-07-04T14:24:06.917Z,2.37
2018-07-04T14:26:45.492Z,1.50
2018-07-04T14:29:24.197Z,1.57
2018-07-04T14:32:02.892Z,4.97
2018-07-04T14:34:41.828Z,2.40
2018-07-04T14:37:21.017Z,2.50
2018-07-04T14:39:59.661Z,1.70
2018-07-04T14:42:38.337Z,1.40
2018-07-04T14:45:17.164Z,3.73
2018-07-04T14:47:55.855Z,1.60
2018-07-04T14:50:34.595Z,2.23
2018-07-04T14:53:13.404Z,2.70
2018-07-04T14:55:52.043Z,3.17
2018-07-04T14:58:30.773Z,1.67
2018-07-04T15:01:09.390Z,1.27
2018-07-04T15:03:48.187Z,2.10
2018-07-04T15:06:26.812Z,2.60
2018-07-04T15:09:05.549Z,2.80
2018-07-04T15:11:44.344Z,1.80
2018-07-04T15:14:23.075Z,1.70
2018-07-04T15:17:01.667Z,2.20
2018-07-04T15:19:40.476Z,4.60
2018-07-04T15:22:19.213Z,1.73
2018-07-04T15:24:57.953Z,2.40
2018-07-04T15:27:36.854Z,1.80
2018-07-04T15:30:15.486Z,4.13
2018-07-04T15:32:54.155Z,2.03
2018-07-04T15:35:32.859Z,7.83
2018-07-04T15:38:11.693Z,1.73
2018-07-04T15:40:50.450Z,1.37
2018-07-04T15:43:29.234Z,2.00
2018-07-04T15:46:07.947Z,2.47
2018-07-04T15:48:46.653Z,1.80
2018-07-04T15:51:25.343Z,1.77
2018-07-04T15:54:04.421Z,4.90
2018-07-04T15:56:43.023Z,2.90
2018-07-04T15:59:21.978Z,3.50
2018-07-04T16:02:00.695Z,5.73
2018-07-04T16:04:39.312Z,5.27
2018-07-04T16:07:18.193Z,2.70
2018-07-04T16:09:56.881Z,5.67
2018-07-04T16:12:35.539Z,4.57
2018-07-04T16:15:14.168Z,1.60
2018-07-04T16:17:52.886Z,1.60
2018-07-04T16:20:31.504Z,1.83
2018-07-04T16:23:09.953Z,6.33
2018-07-04T16:25:48.517Z,2.83
2018-07-04T16:28:27.081Z,3.23
2018-07-04T16:31:05.875Z,2.33
2018-07-04T16:33:44.629Z,4.27
2018-07-04T16:36:23.371Z,3.43
2018-07-04T16:39:02.412Z,2.10
2018-07-04T16:41:41.004Z,2.70
2018-07-04T16:44:19.833Z,4.80
2018-07-04T16:46:58.372Z,2.13
2018-07-04T16:49:37.227Z,6.00
2018-07-04T16:52:15.920Z,2.53
2018-07-04T16:54:54.524Z,2.27
2018-07-04T16:57:33.265Z,2.93
2018-07-04T17:00:12.021Z,4.90
2018-07-04T17:02:51.281Z,4.70
2018-07-04T17:05:29.989Z,4.90
2018-07-04T17:08:08.747Z,4.80
2018-07-04T17:10:47.576Z,3.17
2018-07-04T17:13:26.101Z,1.83
2018-07-04T17:16:04.920Z,2.00
2018-07-04T17:18:43.631Z,1.60
2018-07-04T17:21:22.445Z,3.80
2018-07-04T17:24:01.194Z,1.70
2018-07-04T17:26:39.757Z,2.20
2018-07-04T17:29:18.444Z,4.93
2018-07-04T17:31:57.056Z,1.70
2018-07-04T17:34:35.421Z,1.90
2018-07-04T17:37:14.093Z,2.53
2018-07-04T17:39:52.668Z,4.03
2018-07-04T17:42:31.335Z,2.50
2018-07-04T17:45:09.881Z,4.00
2018-07-04T17:47:48.655Z,1.70
2018-07-04T17:50:27.388Z,4.43
2018-07-04T17:53:06.176Z,2.83
2018-07-04T17:55:44.911Z,2.73
2018-07-04T17:58:23.644Z,2.50
2018-07-04T18:01:02.169Z,8.37
2018-07-04T18:03:40.839Z,8.60
2018-07-04T18:06:19.446Z,2.37
2018-07-04T18:08:57.989Z,4.70
2018-07-04T18:11:36.739Z,2.00
2018-07-04T18:14:15.647Z,15.53
2018-07-04T18:16:54.380Z,10.53
2018-07-04T18:19:33.187Z,3.87
2018-07-04T18:22:11.769Z,5.10
2018-07-04T18:24:50.353Z,1.83
2018-07-04T18:27:28.976Z,2.70
2018-07-04T18:30:07.516Z,2.20
2018-07-04T18:32:46.267Z,2.40
2018-07-04T18:35:25.006Z,2.87
2018-07-04T18:38:03.722Z,3.93
2018-07-04T18:40:44.523Z,2.77
2018-07-04T18:43:23.295Z,2.50
2018-07-04T18:46:01.949Z,2.40
2018-07-04T18:48:40.537Z,3.20
2018-07-04T18:51:19.146Z,5.50
2018-07-04T18:53:57.865Z,2.50
2018-07-04T18:56:36.536Z,3.13
2018-07-04T18:59:15.143Z,5.93
2018-07-04T19:01:53.913Z,5.03
2018-07-04T19:04:32.543Z,8.87
2018-07-04T19:07:11.400Z,7.70
2018-07-04T19:09:50.149Z,9.63
2018-07-04T19:12:28.835Z,5.20
2018-07-04T19:15:07.455Z,5.93
2018-07-04T19:17:46.380Z,9.80
2018-07-04T19:20:25.092Z,6.67
2018-07-04T19:23:03.680Z,10.03
2018-07-04T19:25:42.377Z,7.60
2018-07-04T19:28:20.951Z,10.17
2018-07-04T19:30:59.815Z,12.80
2018-07-04T19:33:38.405Z,12.77
2018-07-04T19:36:16.900Z,7.63
2018-07-04T19:38:55.581Z,5.47
2018-07-04T19:41:34.196Z,13.33
2018-07-04T19:44:12.893Z,17.33
2018-07-04T19:46:51.561Z,11.77
2018-07-04T19:49:30.058Z,9.83
2018-07-04T19:52:08.583Z,10.73
2018-07-04T19:54:47.383Z,12.00
2018-07-04T19:57:25.986Z,14.83
2018-07-04T20:00:04.573Z,11.63
2018-07-04T20:02:43.286Z,11.50
2018-07-04T20:05:22.085Z,9.83
2018-07-04T20:08:00.693Z,15.00
2018-07-04T20:10:39.367Z,14.37
2018-07-04T20:13:18.045Z,13.23
2018-07-04T20:15:56.836Z,21.27
2018-07-04T20:18:35.562Z,10.53
2018-07-04T20:21:14.414Z,11.40
2018-07-04T20:23:52.988Z,32.53
2018-07-04T20:26:31.749Z,20.23
2018-07-04T20:29:10.340Z,15.30
2018-07-04T20:31:48.901Z,14.17
2018-07-04T20:34:27.513Z,11.90
2018-07-04T20:37:06.093Z,15.80
2018-07-04T20:39:44.816Z,24.40
2018-07-04T20:42:23.599Z,10.60
2018-07-04T20:45:02.874Z,14.27
2018-07-04T20:47:41.496Z,19.87
2018-07-04T20:50:20.369Z,18.73
2018-07-04T20:52:59.343Z,16.43
2018-07-04T20:55:39.014Z,23.23
2018-07-04T20:58:17.699Z,19.93
2018-07-04T21:00:56.671Z,8.63
2018-07-04T21:03:35.616Z,14.77
2018-07-04T21:06:15.003Z,12.17
2018-07-04T21:08:54.200Z,12.53
2018-07-04T21:11:33.110Z,16.83
2018-07-04T21:14:12.249Z,12.80
2018-07-04T21:16:51.269Z,19.47
2018-07-04T21:19:29.892Z,15.10
2018-07-04T21:22:08.739Z,13.93
2018-07-04T21:24:47.375Z,11.43
2018-07-04T21:27:26.228Z,14.93
2018-07-04T21:30:05.271Z,14.07
2018-07-04T21:32:43.933Z,14.00
2018-07-04T21:35:22.537Z,7.73
2018-07-04T21:38:01.244Z,12.67
2018-07-04T21:40:39.840Z,9.93
2018-07-04T21:43:18.416Z,7.43
2018-07-04T21:45:57.039Z,11.90
2018-07-04T21:48:35.688Z,10.60
2018-07-04T21:51:14.483Z,9.33
2018-07-04T21:53:53.179Z,13.33
2018-07-04T21:56:31.845Z,9.70
2018-07-04T21:59:10.405Z,10.50
2018-07-04T22:01:49.266Z,13.50
2018-07-04T22:04:27.990Z,11.57
2018-07-04T22:07:06.664Z,12.73
2018-07-04T22:09:45.295Z,12.13
2018-07-04T22:12:23.940Z,16.57
2018-07-04T22:15:03.124Z,12.40
2018-07-04T22:17:41.853Z,10.23
2018-07-04T22:20:20.341Z,12.27
2018-07-04T22:22:58.973Z,21.23
2018-07-04T22:25:37.624Z,13.80
2018-07-04T22:28:16.455Z,18.87
2018-07-04T22:30:55.228Z,10.17
2018-07-04T22:33:33.856Z,12.37
2018-07-04T22:36:12.423Z,8.13
2018-07-04T22:38:51.188Z,11.90
2018-07-04T22:41:29.660Z,12.90
2018-07-04T22:44:08.467Z,19.40
2018-07-04T22:46:47.156Z,9.70
2018-07-04T22:49:26.043Z,14.10
2018-07-04T22:52:04.791Z,12.80
2018-07-04T22:54:43.521Z,10.97
2018-07-04T22:57:22.103Z,9.90
2018-07-04T23:00:01.068Z,15.20
2018-07-04T23:02:40.208Z,8.70
2018-07-04T23:05:18.941Z,18.93
2018-07-04T23:07:57.526Z,13.57
2018-07-04T23:10:36.136Z,13.27
2018-07-04T23:13:14.725Z,12.43
2018-07-04T23:15:53.567Z,14.93
2018-07-04T23:18:32.356Z,19.37
2018-07-04T23:21:11.165Z,19.53
2018-07-04T23:23:49.993Z,17.90
2018-07-04T23:26:28.560Z,10.53
2018-07-04T23:29:07.397Z,11.07
2018-07-04T23:31:46.116Z,11.27
2018-07-04T23:34:24.953Z,12.63
2018-07-04T23:37:03.794Z,15.63
2018-07-04T23:39:42.325Z,10.03
2018-07-04T23:42:20.996Z,13.07
2018-07-04T23:44:59.884Z,17.33
2018-07-04T23:47:38.577Z,17.27
2018-07-04T23:50:17.307Z,12.60
2018-07-04T23:52:56.096Z,11.77
2018-07-04T23:55:34.725Z,12.27
2018-07-04T23:58:13.255Z,18.17
